Time;durP1;ratioP1;P1;durP2;ratioP2;P2;SDS_P1;SDS_P2;PMS_P1;PMS_P2;Temp;Humidity;BMP_temperature;BMP_pressure;BME280_temperature;BME280_humidity;BME280_pressure;Samples;Min_cycle;Max_cycle;Signal;HPM_P1;HPM_P2
2022/05/14 00:01:00;;;;;;;5.55;2.13;;;;;;;;;;5055306;28;20059;-64
2022/05/14 00:03:30;;;;;;;3.95;1.95;;;;;;;;;;5055167;28;20045;-64
2022/05/14 00:06:00;;;;;;;7.28;2.75;;;;;;;;;;5055325;28;20041;-64
2022/05/14 00:08:30;;;;;;;8.80;2.38;;;;;;;;;;5055516;28;20152;-64
2022/05/14 00:13:45;;;;;;;2.72;2.05;;;;;;;;;;5053865;28;20061;-64
2022/05/14 00:16:14;;;;;;;5.30;2.28;;;;;;;;;;5053869;28;20476;-64
2022/05/14 00:18:43;;;;;;;8.38;3.30;;;;;;;;;;5055022;28;20076;-64
2022/05/14 00:21:12;;;;;;;3.58;2.45;;;;;;;;;;5055023;28;20051;-64
2022/05/14 00:23:40;;;;;;;4.45;1.80;;;;;;;;;;5054907;28;20041;-63
2022/05/14 00:26:08;;;;;;;4.35;2.33;;;;;;;;;;5054720;28;20071;-64
2022/05/14 00:28:38;;;;;;;3.70;2.70;;;;;;;;;;5054752;28;20057;-64
2022/05/14 00:31:09;;;;;;;7.88;2.42;;;;;;;;;;5055271;28;20052;-64
2022/05/14 00:33:38;;;;;;;7.13;2.25;;;;;;;;;;5053621;28;20041;-65
2022/05/14 00:36:08;;;;;;;8.55;2.33;;;;;;;;;;5055240;28;20045;-65
2022/05/14 00:38:36;;;;;;;3.95;2.15;;;;;;;;;;5054661;28;20103;-65
2022/05/14 00:41:06;;;;;;;7.63;2.10;;;;;;;;;;5036928;28;20049;-64
2022/05/14 00:43:48;;;;;;;6.88;2.35;;;;;;;;;;5053238;28;20044;-65
2022/05/14 00:46:20;;;;;;;7.63;2.33;;;;;;;;;;5054430;28;20385;-64
2022/05/14 00:48:52;;;;;;;4.75;2.22;;;;;;;;;;5036721;28;20068;-64
2022/05/14 00:51:28;;;;;;;6.72;2.88;;;;;;;;;;5054856;28;20045;-65
2022/05/14 00:54:04;;;;;;;2.85;2.00;;;;;;;;;;5053225;28;20144;-65
2022/05/14 00:56:36;;;;;;;4.75;2.92;;;;;;;;;;5020485;28;20130;-64
2022/05/14 00:59:16;;;;;;;3.93;3.00;;;;;;;;;;5037304;28;20103;-64
2022/05/14 01:01:48;;;;;;;7.65;2.42;;;;;;;;;;5037084;28;20484;-65
2022/05/14 01:04:18;;;;;;;4.05;2.10;;;;;;;;;;5053238;28;20106;-64
2022/05/14 01:06:53;;;;;;;8.18;3.05;;;;;;;;;;5019649;28;20442;-64
2022/05/14 01:09:21;;;;;;;6.82;2.20;;;;;;;;;;5054350;28;20404;-64
2022/05/14 01:11:50;;;;;;;4.93;2.10;;;;;;;;;;5052743;28;20479;-65
2022/05/14 01:14:20;;;;;;;4.70;3.13;;;;;;;;;;5020711;28;20045;-65
2022/05/14 01:16:53;;;;;;;5.57;2.50;;;;;;;;;;5054039;28;20083;-64
2022/05/14 01:19:24;;;;;;;6.05;3.17;;;;;;;;;;5036186;28;20057;-64
2022/05/14 01:22:24;;;;;;;7.10;3.08;;;;;;;;;;5035866;28;20135;-64
2022/05/14 01:28:29;;;;;;;6.00;2.80;;;;;;;;;;5053667;28;20155;-63
2022/05/14 01:31:00;;;;;;;8.32;2.85;;;;;;;;;;5053787;28;20053;-64
2022/05/14 01:33:34;;;;;;;4.00;2.65;;;;;;;;;;5035745;28;20044;-64
2022/05/14 01:36:07;;;;;;;4.97;3.22;;;;;;;;;;5036297;28;20099;-64
2022/05/14 01:38:36;;;;;;;5.60;2.50;;;;;;;;;;5052220;28;20506;-64
2022/05/14 01:41:05;;;;;;;3.42;2.80;;;;;;;;;;5035545;28;20045;-64
2022/05/14 01:43:33;;;;;;;8.00;2.97;;;;;;;;;;5035978;28;20056;-63
2022/05/14 01:46:02;;;;;;;7.18;2.90;;;;;;;;;;5052136;28;20115;-63
2022/05/14 01:48:29;;;;;;;12.80;3.88;;;;;;;;;;5036082;28;20507;-63
2022/05/14 01:50:59;;;;;;;8.27;3.75;;;;;;;;;;5052143;28;20076;-63
2022/05/14 01:53:29;;;;;;;6.25;3.10;;;;;;;;;;5036456;28;20072;-63
2022/05/14 01:55:57;;;;;;;5.85;2.75;;;;;;;;;;5035437;28;20138;-63
2022/05/14 01:58:38;;;;;;;4.45;3.05;;;;;;;;;;5053659;28;20053;-63
2022/05/14 02:01:34;;;;;;;4.82;3.03;;;;;;;;;;5035545;28;20052;-65
2022/05/14 02:04:09;;;;;;;5.53;3.67;;;;;;;;;;5036107;28;20143;-63
2022/05/14 02:06:39;;;;;;;5.25;3.47;;;;;;;;;;5035529;28;20730;-63
2022/05/14 02:09:11;;;;;;;9.57;3.03;;;;;;;;;;5035324;28;20152;-65
2022/05/14 02:11:42;;;;;;;13.25;3.53;;;;;;;;;;5053308;28;20045;-63
2022/05/14 02:14:16;;;;;;;5.97;3.40;;;;;;;;;;5035557;28;20053;-62
2022/05/14 02:16:44;;;;;;;7.28;3.45;;;;;;;;;;5052139;28;20179;-65
2022/05/14 02:19:13;;;;;;;4.78;3.28;;;;;;;;;;5051811;28;20056;-63
2022/05/14 02:21:41;;;;;;;9.77;3.30;;;;;;;;;;5053177;28;20547;-63
2022/05/14 02:24:12;;;;;;;5.53;3.10;;;;;;;;;;5051798;28;20490;-64
2022/05/14 02:26:41;;;;;;;15.80;3.50;;;;;;;;;;5035488;28;20055;-64
2022/05/14 02:29:10;;;;;;;7.68;3.10;;;;;;;;;;5035049;28;20482;-63
2022/05/14 02:31:38;;;;;;;10.10;2.90;;;;;;;;;;5053259;28;20037;-64
2022/05/14 02:34:07;;;;;;;7.05;3.50;;;;;;;;;;5034785;28;20053;-64
2022/05/14 02:36:36;;;;;;;13.10;4.63;;;;;;;;;;5053384;28;20095;-65
2022/05/14 02:39:05;;;;;;;8.02;3.38;;;;;;;;;;5057253;28;20074;-65
2022/05/14 02:41:34;;;;;;;8.25;3.88;;;;;;;;;;5056220;28;20420;-66
2022/05/14 02:44:03;;;;;;;5.43;3.05;;;;;;;;;;5057453;28;20098;-66
2022/05/14 02:46:32;;;;;;;7.35;2.95;;;;;;;;;;5054957;28;20099;-66
2022/05/14 02:49:00;;;;;;;12.57;3.38;;;;;;;;;;5039145;28;20049;-66
2022/05/14 02:51:29;;;;;;;8.20;4.05;;;;;;;;;;5055609;28;20102;-66
2022/05/14 02:54:00;;;;;;;7.28;3.67;;;;;;;;;;5057015;28;20145;-65
2022/05/14 02:56:29;;;;;;;5.47;3.22;;;;;;;;;;5057037;28;20072;-65
2022/05/14 02:59:07;;;;;;;8.93;3.20;;;;;;;;;;5056518;28;20053;-63
2022/05/14 03:01:47;;;;;;;8.93;4.20;;;;;;;;;;5055759;28;20480;-63
2022/05/14 03:04:22;;;;;;;7.25;2.80;;;;;;;;;;5056662;28;20073;-66
2022/05/14 03:06:52;;;;;;;11.02;3.28;;;;;;;;;;5056422;28;20049;-65
2022/05/14 03:09:20;;;;;;;9.13;3.28;;;;;;;;;;5038106;28;20134;-65
2022/05/14 03:11:49;;;;;;;11.45;2.55;;;;;;;;;;5038636;28;20407;-65
2022/05/14 03:14:17;;;;;;;8.38;3.65;;;;;;;;;;5055907;28;20068;-63
2022/05/14 03:16:46;;;;;;;5.57;2.80;;;;;;;;;;5055254;28;20059;-65
2022/05/14 03:19:15;;;;;;;9.13;3.22;;;;;;;;;;5056211;28;20045;-65
2022/05/14 03:21:46;;;;;;;13.85;3.63;;;;;;;;;;5038309;28;20511;-64
2022/05/14 03:24:15;;;;;;;5.22;3.72;;;;;;;;;;5038153;28;20067;-63
2022/05/14 03:26:43;;;;;;;7.70;4.07;;;;;;;;;;5056315;28;20059;-65
2022/05/14 03:29:13;;;;;;;5.55;4.90;;;;;;;;;;5038924;28;20053;-65
2022/05/14 03:31:42;;;;;;;8.43;4.50;;;;;;;;;;5054672;28;20079;-64
2022/05/14 03:34:12;;;;;;;18.30;5.72;;;;;;;;;;5038244;28;20049;-63
2022/05/14 03:36:41;;;;;;;10.20;4.72;;;;;;;;;;5054361;28;20044;-65
2022/05/14 03:39:11;;;;;;;19.42;4.00;;;;;;;;;;5038384;28;20045;-65
2022/05/14 03:41:40;;;;;;;6.22;3.80;;;;;;;;;;5055728;28;20045;-65
2022/05/14 03:44:09;;;;;;;5.80;3.95;;;;;;;;;;5055847;28;20464;-63
2022/05/14 03:46:37;;;;;;;6.45;3.65;;;;;;;;;;5037943;28;20045;-63
2022/05/14 03:49:06;;;;;;;11.15;5.13;;;;;;;;;;5038075;28;20041;-65
2022/05/14 03:51:35;;;;;;;9.07;4.82;;;;;;;;;;5055855;28;20055;-63
2022/05/14 03:54:05;;;;;;;5.85;4.15;;;;;;;;;;5055222;28;20140;-64
2022/05/14 03:56:34;;;;;;;8.68;5.50;;;;;;;;;;5055850;28;20045;-64
2022/05/14 03:59:03;;;;;;;10.93;5.03;;;;;;;;;;5037453;28;20147;-64
2022/05/14 04:01:31;;;;;;;12.60;6.18;;;;;;;;;;5055922;28;20049;-64
2022/05/14 04:04:00;;;;;;;13.50;6.22;;;;;;;;;;5055259;28;20045;-65
2022/05/14 04:06:32;;;;;;;7.10;5.53;;;;;;;;;;5054199;28;20124;-65
2022/05/14 04:09:01;;;;;;;6.97;5.40;;;;;;;;;;5055271;28;20506;-63
2022/05/14 04:11:30;;;;;;;11.30;5.97;;;;;;;;;;5054366;28;20052;-64
2022/05/14 04:13:59;;;;;;;16.85;4.00;;;;;;;;;;5037538;28;20496;-62
2022/05/14 04:16:29;;;;;;;10.05;3.72;;;;;;;;;;5053743;28;20049;-62
2022/05/14 04:18:59;;;;;;;9.68;4.90;;;;;;;;;;5054372;28;20052;-62
2022/05/14 04:21:26;;;;;;;11.48;4.07;;;;;;;;;;5053746;28;20052;-62
2022/05/14 04:23:54;;;;;;;5.28;3.08;;;;;;;;;;5053950;28;20423;-62
2022/05/14 04:26:24;;;;;;;5.80;3.95;;;;;;;;;;5036364;28;20056;-61
2022/05/14 04:28:53;;;;;;;6.40;2.80;;;;;;;;;;5055350;28;20045;-61
2022/05/14 04:31:23;;;;;;;5.45;3.28;;;;;;;;;;5020392;28;20084;-62
2022/05/14 04:33:52;;;;;;;6.68;3.83;;;;;;;;;;5037060;28;20491;-64
2022/05/14 04:36:23;;;;;;;13.07;3.53;;;;;;;;;;5036820;28;20499;-63
2022/05/14 04:38:51;;;;;;;6.25;3.30;;;;;;;;;;5036923;28;20049;-63
2022/05/14 04:41:23;;;;;;;6.47;2.85;;;;;;;;;;5037346;28;20415;-63
2022/05/14 04:43:52;;;;;;;3.75;3.05;;;;;;;;;;5054643;28;20435;-62
2022/05/14 04:46:21;;;;;;;7.45;2.65;;;;;;;;;;5037065;28;20060;-63
2022/05/14 04:48:50;;;;;;;4.13;3.45;;;;;;;;;;5036789;28;20064;-65
2022/05/14 04:51:20;;;;;;;5.70;3.03;;;;;;;;;;5036512;28;20048;-63
2022/05/14 04:53:50;;;;;;;6.97;3.08;;;;;;;;;;5036402;28;20045;-65
2022/05/14 04:56:20;;;;;;;2.92;2.47;;;;;;;;;;5036354;28;20056;-64
2022/05/14 04:58:49;;;;;;;15.52;5.07;;;;;;;;;;5036412;28;20052;-64
2022/05/14 05:01:18;;;;;;;4.95;2.55;;;;;;;;;;5052279;28;20499;-64
2022/05/14 05:03:46;;;;;;;2.90;2.35;;;;;;;;;;5035958;28;20075;-65
2022/05/14 05:06:14;;;;;;;4.60;2.50;;;;;;;;;;5035514;28;20069;-65
2022/05/14 05:08:44;;;;;;;9.38;2.83;;;;;;;;;;5018725;28;20049;-65
2022/05/14 05:11:12;;;;;;;6.75;3.28;;;;;;;;;;5053506;28;20053;-65
2022/05/14 05:13:42;;;;;;;11.43;3.35;;;;;;;;;;5054088;28;20140;-65
2022/05/14 05:16:12;;;;;;;6.68;3.20;;;;;;;;;;5053125;28;20040;-66
2022/05/14 05:18:40;;;;;;;10.95;2.97;;;;;;;;;;5054015;28;20041;-64
2022/05/14 05:21:10;;;;;;;8.60;2.97;;;;;;;;;;5052221;28;20539;-64
2022/05/14 05:23:39;;;;;;;11.98;3.80;;;;;;;;;;5052022;28;20052;-64
2022/05/14 05:26:08;;;;;;;8.07;2.80;;;;;;;;;;5052748;28;20582;-64
2022/05/14 05:28:37;;;;;;;14.20;3.28;;;;;;;;;;5052925;28;20051;-64
2022/05/14 05:31:07;;;;;;;6.20;3.33;;;;;;;;;;5053258;28;20052;-64
2022/05/14 05:33:35;;;;;;;6.60;2.58;;;;;;;;;;5053173;28;20076;-64
2022/05/14 05:36:07;;;;;;;6.20;3.30;;;;;;;;;;5035902;28;20068;-64
2022/05/14 05:38:37;;;;;;;7.60;3.97;;;;;;;;;;5036046;28;20053;-64
2022/05/14 05:41:05;;;;;;;6.75;3.70;;;;;;;;;;5053507;28;20041;-64
2022/05/14 05:43:34;;;;;;;5.85;3.97;;;;;;;;;;5053432;28;20550;-63
2022/05/14 05:46:02;;;;;;;10.43;4.80;;;;;;;;;;5053087;28;20045;-64
2022/05/14 05:48:30;;;;;;;11.60;5.85;;;;;;;;;;5053542;28;20045;-63
2022/05/14 05:50:58;;;;;;;7.70;4.90;;;;;;;;;;5053203;28;20048;-64
2022/05/14 05:59:04;;;;;;;8.55;5.70;;;;;;;;;;5053553;28;20392;-64
2022/05/14 06:01:32;;;;;;;7.47;4.78;;;;;;;;;;5053226;28;20052;-63
2022/05/14 06:04:01;;;;;;;8.63;4.65;;;;;;;;;;5053557;28;20103;-64
2022/05/14 06:06:31;;;;;;;16.27;5.78;;;;;;;;;;5053066;28;20079;-64
2022/05/14 06:09:02;;;;;;;11.43;5.63;;;;;;;;;;5052672;28;20136;-64
2022/05/14 06:11:32;;;;;;;10.57;4.75;;;;;;;;;;5052992;28;20052;-65
2022/05/14 06:14:01;;;;;;;15.40;5.45;;;;;;;;;;5053137;28;20072;-65
2022/05/14 06:16:29;;;;;;;4.72;4.28;;;;;;;;;;5053391;28;20510;-65
2022/05/14 06:18:58;;;;;;;14.60;4.35;;;;;;;;;;5053298;28;20195;-65
2022/05/14 06:21:27;;;;;;;9.40;4.90;;;;;;;;;;5053202;28;20072;-65
2022/05/14 06:23:55;;;;;;;10.50;4.88;;;;;;;;;;5052872;28;20049;-65
2022/05/14 06:26:23;;;;;;;6.38;4.70;;;;;;;;;;5053285;28;20052;-65
2022/05/14 06:28:52;;;;;;;16.88;5.00;;;;;;;;;;5052853;28;20404;-65
2022/05/14 06:31:20;;;;;;;12.65;5.05;;;;;;;;;;5053928;28;20492;-65
2022/05/14 06:33:48;;;;;;;14.18;4.07;;;;;;;;;;5052561;28;20053;-63
2022/05/14 06:36:16;;;;;;;8.70;4.50;;;;;;;;;;5053367;28;20404;-65
2022/05/14 06:38:45;;;;;;;9.80;4.00;;;;;;;;;;5052923;28;20099;-64
2022/05/14 06:41:14;;;;;;;11.70;5.53;;;;;;;;;;5050725;28;20649;-63
2022/05/14 06:43:44;;;;;;;8.00;4.15;;;;;;;;;;5052397;28;20098;-65
2022/05/14 06:46:15;;;;;;;6.55;3.92;;;;;;;;;;5051598;28;20077;-64
2022/05/14 06:48:43;;;;;;;10.13;4.47;;;;;;;;;;5050944;28;20090;-64
2022/05/14 06:51:16;;;;;;;7.72;4.50;;;;;;;;;;5051073;28;20048;-63
2022/05/14 06:53:44;;;;;;;12.02;5.20;;;;;;;;;;5034879;28;20076;-64
2022/05/14 06:56:14;;;;;;;11.75;5.28;;;;;;;;;;5052370;28;20404;-64
2022/05/14 06:58:44;;;;;;;7.47;4.50;;;;;;;;;;5053021;28;20055;-64
2022/05/14 07:01:11;;;;;;;13.07;4.50;;;;;;;;;;5052881;28;20135;-64
2022/05/14 07:06:39;;;;;;;6.72;4.03;;;;;;;;;;5052968;28;20060;-64
2022/05/14 07:09:12;;;;;;;19.27;5.15;;;;;;;;;;5052081;28;20514;-64
2022/05/14 07:11:43;;;;;;;10.37;4.77;;;;;;;;;;5051586;28;20041;-64
2022/05/14 07:14:12;;;;;;;8.25;4.40;;;;;;;;;;5052083;28;20056;-63
2022/05/14 07:16:41;;;;;;;8.63;5.20;;;;;;;;;;5052110;28;20059;-64
2022/05/14 07:19:09;;;;;;;4.75;3.97;;;;;;;;;;5051396;28;20041;-64
2022/05/14 07:21:43;;;;;;;10.10;4.57;;;;;;;;;;5051696;28;20049;-64
2022/05/14 07:24:15;;;;;;;9.77;4.13;;;;;;;;;;5053644;28;20041;-64
2022/05/14 07:26:44;;;;;;;6.93;4.55;;;;;;;;;;5054121;28;20072;-64
2022/05/14 07:29:14;;;;;;;5.88;4.10;;;;;;;;;;5054537;28;20515;-64
2022/05/14 07:31:44;;;;;;;12.18;4.68;;;;;;;;;;5054371;28;20139;-64
2022/05/14 07:34:12;;;;;;;12.93;4.72;;;;;;;;;;5054741;28;20049;-64
2022/05/14 07:36:54;;;;;;;9.88;5.05;;;;;;;;;;5054096;28;20080;-64
2022/05/14 07:39:25;;;;;;;8.50;4.57;;;;;;;;;;5055490;28;20033;-64
2022/05/14 07:41:56;;;;;;;6.38;4.25;;;;;;;;;;5055777;28;20524;-64
2022/05/14 07:44:37;;;;;;;10.23;4.25;;;;;;;;;;5038877;28;20059;-64
2022/05/14 07:47:07;;;;;;;10.68;4.45;;;;;;;;;;5055761;28;20543;-64
2022/05/14 07:49:35;;;;;;;11.43;5.53;;;;;;;;;;5056376;28;20064;-64
2022/05/14 07:52:04;;;;;;;10.15;5.35;;;;;;;;;;5054524;28;20049;-64
2022/05/14 07:54:33;;;;;;;7.65;4.50;;;;;;;;;;5038482;28;20056;-64
2022/05/14 07:57:06;;;;;;;5.63;4.88;;;;;;;;;;5038680;28;20047;-64
2022/05/14 07:59:35;;;;;;;5.65;4.03;;;;;;;;;;5055381;28;20053;-66
2022/05/14 08:02:05;;;;;;;12.00;5.22;;;;;;;;;;5055898;28;20040;-64
2022/05/14 08:04:34;;;;;;;6.93;4.10;;;;;;;;;;5055208;28;20091;-64
2022/05/14 08:07:04;;;;;;;7.90;4.13;;;;;;;;;;5055495;28;20407;-64
2022/05/14 08:09:32;;;;;;;7.57;4.57;;;;;;;;;;5055430;28;20044;-64
2022/05/14 08:12:03;;;;;;;8.05;4.53;;;;;;;;;;5055589;28;20140;-64
2022/05/14 08:14:33;;;;;;;14.75;5.07;;;;;;;;;;5055163;28;20072;-64
2022/05/14 08:17:04;;;;;;;10.40;4.03;;;;;;;;;;5055793;28;20064;-64
2022/05/14 08:19:33;;;;;;;15.23;4.78;;;;;;;;;;5055494;28;20155;-65
2022/05/14 08:24:48;;;;;;;4.97;3.45;;;;;;;;;;5055527;28;20055;-65
2022/05/14 08:27:17;;;;;;;7.50;3.75;;;;;;;;;;5054896;28;20397;-65
2022/05/14 08:29:47;;;;;;;6.97;4.13;;;;;;;;;;5055396;28;20053;-64
2022/05/14 08:32:18;;;;;;;11.90;3.72;;;;;;;;;;5054837;28;20484;-64
2022/05/14 08:34:48;;;;;;;10.57;4.00;;;;;;;;;;5053992;28;20045;-65
2022/05/14 08:37:17;;;;;;;9.20;3.45;;;;;;;;;;5054638;28;20049;-65
2022/05/14 08:39:44;;;;;;;5.80;2.92;;;;;;;;;;5054648;28;20049;-66
2022/05/14 08:42:13;;;;;;;7.50;4.10;;;;;;;;;;5054377;28;20060;-66
2022/05/14 08:44:44;;;;;;;9.43;3.58;;;;;;;;;;5055023;28;20099;-66
2022/05/14 08:47:29;;;;;;;7.03;3.05;;;;;;;;;;5055203;28;20044;-66
2022/05/14 08:49:58;;;;;;;8.50;3.78;;;;;;;;;;5054920;28;20120;-66
2022/05/14 08:52:33;;;;;;;8.85;2.92;;;;;;;;;;5054703;28;20044;-66
2022/05/14 08:55:06;;;;;;;12.45;3.47;;;;;;;;;;5053286;28;20066;-65
2022/05/14 08:57:43;;;;;;;8.90;2.90;;;;;;;;;;5054556;28;20044;-66
2022/05/14 09:00:13;;;;;;;6.47;2.83;;;;;;;;;;5034582;28;20045;-65
2022/05/14 09:02:51;;;;;;;16.83;4.03;;;;;;;;;;5034728;28;20108;-65
2022/05/14 09:05:23;;;;;;;9.70;2.90;;;;;;;;;;5031360;28;20052;-65
2022/05/14 09:07:51;;;;;;;10.93;3.10;;;;;;;;;;5041358;28;20061;-66
2022/05/14 09:10:32;;;;;;;8.05;4.22;;;;;;;;;;5054076;28;20060;-65
2022/05/14 09:13:10;;;;;;;6.78;3.20;;;;;;;;;;5054310;28;20049;-66
2022/05/14 09:16:04;;;;;;;6.63;2.85;;;;;;;;;;5054083;28;20131;-66
2022/05/14 09:18:41;;;;;;;8.25;3.28;;;;;;;;;;5035182;28;20424;-65
2022/05/14 09:21:19;;;;;;;10.07;2.97;;;;;;;;;;5053963;28;20049;-66
2022/05/14 09:24:03;;;;;;;9.27;3.00;;;;;;;;;;5036639;28;20458;-65
2022/05/14 09:26:40;;;;;;;8.43;3.47;;;;;;;;;;5051708;28;20052;-66
2022/05/14 09:29:26;;;;;;;6.43;3.30;;;;;;;;;;5054137;28;20052;-66
2022/05/14 09:32:00;;;;;;;7.28;2.97;;;;;;;;;;5053238;28;20063;-68
2022/05/14 09:34:34;;;;;;;7.32;3.30;;;;;;;;;;5053859;28;20515;-66
2022/05/14 09:37:12;;;;;;;12.55;3.75;;;;;;;;;;5054105;28;20546;-65
2022/05/14 09:39:40;;;;;;;7.50;2.55;;;;;;;;;;5053333;28;20040;-66
2022/05/14 09:42:27;;;;;;;7.63;3.00;;;;;;;;;;5053606;28;20060;-68
2022/05/14 09:44:55;;;;;;;8.35;3.20;;;;;;;;;;5035883;28;20102;-66
2022/05/14 09:47:26;;;;;;;10.30;3.70;;;;;;;;;;5053220;28;20103;-67
2022/05/14 09:49:59;;;;;;;7.93;2.80;;;;;;;;;;5053488;28;20045;-66
2022/05/14 09:52:35;;;;;;;11.57;2.75;;;;;;;;;;5036304;28;20065;-66
2022/05/14 09:55:08;;;;;;;12.13;2.97;;;;;;;;;;5034012;28;20070;-66
2022/05/14 09:57:36;;;;;;;5.95;2.60;;;;;;;;;;5054844;28;20480;-64
2022/05/14 10:00:33;;;;;;;6.60;3.25;;;;;;;;;;5055174;28;20132;-66
2022/05/14 10:03:18;;;;;;;12.30;3.80;;;;;;;;;;5047265;28;20072;-66
2022/05/14 10:05:50;;;;;;;8.63;2.90;;;;;;;;;;5049599;28;20103;-66
2022/05/14 10:08:24;;;;;;;4.60;2.78;;;;;;;;;;5052593;28;20060;-66
2022/05/14 10:11:00;;;;;;;8.43;2.95;;;;;;;;;;5051809;28;20053;-66
2022/05/14 10:13:50;;;;;;;10.90;2.80;;;;;;;;;;5051434;28;20048;-66
2022/05/14 10:16:38;;;;;;;5.63;2.42;;;;;;;;;;5052931;28;20427;-66
2022/05/14 10:19:05;;;;;;;7.93;3.10;;;;;;;;;;5035361;28;20059;-66
2022/05/14 10:21:57;;;;;;;7.25;1.98;;;;;;;;;;5053232;28;20381;-66
2022/05/14 10:27:54;;;;;;;9.10;2.45;;;;;;;;;;5053132;28;20115;-66
2022/05/14 10:30:28;;;;;;;8.48;2.40;;;;;;;;;;5049696;28;20049;-65
2022/05/14 10:33:03;;;;;;;5.45;2.40;;;;;;;;;;5035651;28;20044;-66
2022/05/14 10:35:58;;;;;;;7.15;3.08;;;;;;;;;;5032342;28;20132;-67
2022/05/14 10:38:44;;;;;;;9.60;2.83;;;;;;;;;;5050407;28;20415;-65
2022/05/14 10:41:25;;;;;;;4.82;3.30;;;;;;;;;;5053279;28;20132;-66
2022/05/14 10:44:10;;;;;;;6.32;2.78;;;;;;;;;;5029796;28;20041;-65
2022/05/14 10:46:41;;;;;;;9.52;2.10;;;;;;;;;;5048657;28;20057;-66
2022/05/14 10:49:15;;;;;;;11.50;2.85;;;;;;;;;;5052430;28;20045;-66
2022/05/14 10:51:45;;;;;;;9.25;3.10;;;;;;;;;;5052229;28;20519;-67
2022/05/14 10:54:16;;;;;;;6.18;2.63;;;;;;;;;;5052240;28;20055;-65
2022/05/14 10:57:15;;;;;;;8.90;3.00;;;;;;;;;;5011180;28;20148;-66
2022/05/14 11:00:30;;;;;;;13.00;2.88;;;;;;;;;;5054154;28;20057;-66
2022/05/14 11:03:14;;;;;;;4.95;2.70;;;;;;;;;;5051624;28;20458;-66
2022/05/14 11:06:10;;;;;;;6.25;3.05;;;;;;;;;;5053378;28;20096;-66
2022/05/14 11:08:45;;;;;;;16.02;3.65;;;;;;;;;;5053393;28;20053;-66
2022/05/14 11:11:17;;;;;;;6.85;3.28;;;;;;;;;;5052620;28;20463;-66
2022/05/14 11:14:05;;;;;;;11.30;3.05;;;;;;;;;;5055636;28;20051;-66
2022/05/14 11:16:43;;;;;;;6.95;3.13;;;;;;;;;;5054550;28;20167;-66
2022/05/14 11:19:25;;;;;;;13.52;3.15;;;;;;;;;;5052954;28;20057;-65
2022/05/14 11:21:54;;;;;;;10.68;4.40;;;;;;;;;;5038462;28;20457;-64
2022/05/14 11:24:38;;;;;;;6.07;2.78;;;;;;;;;;5055134;28;20079;-66
2022/05/14 11:27:06;;;;;;;10.82;3.30;;;;;;;;;;5038450;28;20194;-66
2022/05/14 11:29:49;;;;;;;7.07;3.22;;;;;;;;;;5052738;28;20381;-66
2022/05/14 11:32:19;;;;;;;6.53;2.92;;;;;;;;;;5048781;28;20037;-66
2022/05/14 11:34:57;;;;;;;16.88;3.30;;;;;;;;;;5054324;28;20102;-67
2022/05/14 11:37:32;;;;;;;9.60;3.15;;;;;;;;;;5055397;28;20048;-68
2022/05/14 11:40:13;;;;;;;12.05;3.40;;;;;;;;;;5054558;28;20523;-69
2022/05/14 11:42:43;;;;;;;6.90;2.80;;;;;;;;;;5055241;28;20049;-67
2022/05/14 11:45:18;;;;;;;8.60;3.10;;;;;;;;;;5055058;28;20053;-67
2022/05/14 11:48:19;;;;;;;10.48;4.15;;;;;;;;;;5034103;28;20049;-67
2022/05/14 11:51:08;;;;;;;6.35;2.38;;;;;;;;;;5052026;28;20056;-67
2022/05/14 11:53:50;;;;;;;9.75;3.10;;;;;;;;;;5035243;28;20041;-67
2022/05/14 11:56:24;;;;;;;4.65;2.75;;;;;;;;;;5048757;28;20391;-67
2022/05/14 11:59:07;;;;;;;7.50;3.08;;;;;;;;;;5051311;28;20060;-68
2022/05/14 12:01:39;;;;;;;13.82;3.10;;;;;;;;;;5035022;28;20079;-66
2022/05/14 12:04:27;;;;;;;12.48;3.30;;;;;;;;;;5053848;28;20052;-67
2022/05/14 12:07:22;;;;;;;5.60;2.67;;;;;;;;;;5033335;28;20106;-66
2022/05/14 12:10:30;;;;;;;14.40;3.42;;;;;;;;;;5048313;28;20132;-66
2022/05/14 12:13:13;;;;;;;8.95;2.70;;;;;;;;;;5054303;28;20041;-65
2022/05/14 12:15:49;;;;;;;;;;;;;;;;;;5065776;28;20064;-66
2022/05/14 12:18:20;;;;;;;12.02;2.78;;;;;;;;;;5057583;28;19921;-65
2022/05/14 12:21:05;;;;;;;9.02;2.70;;;;;;;;;;5057406;28;20121;-64
2022/05/14 12:23:39;;;;;;;20.40;3.90;;;;;;;;;;5039385;28;20124;-65
2022/05/14 12:26:26;;;;;;;7.27;2.63;;;;;;;;;;5055940;28;20075;-65
2022/05/14 12:29:03;;;;;;;9.38;3.70;;;;;;;;;;5053816;28;20104;-65
2022/05/14 12:35:07;;;;;;;7.90;3.55;;;;;;;;;;5056222;28;20071;-66
2022/05/14 12:37:48;;;;;;;3.60;2.20;;;;;;;;;;5028177;28;20079;-66
2022/05/14 12:40:35;;;;;;;11.07;3.20;;;;;;;;;;5055505;28;20049;-66
2022/05/14 12:43:13;;;;;;;14.18;3.08;;;;;;;;;;5055999;28;20049;-67
2022/05/14 12:46:09;;;;;;;12.13;2.97;;;;;;;;;;5044960;28;20522;-65
2022/05/14 12:48:57;;;;;;;9.25;2.80;;;;;;;;;;5051263;28;20407;-65
2022/05/14 12:51:35;;;;;;;9.45;2.78;;;;;;;;;;5023058;28;20160;-64
2022/05/14 12:54:30;;;;;;;9.18;3.67;;;;;;;;;;5030793;28;20076;-65
2022/05/14 12:57:09;;;;;;;9.38;2.78;;;;;;;;;;5055257;28;20088;-65
2022/05/14 12:59:53;;;;;;;6.18;2.33;;;;;;;;;;5055610;28;20113;-65
2022/05/14 13:02:43;;;;;;;9.50;2.60;;;;;;;;;;5039282;28;20064;-65
2022/05/14 13:05:19;;;;;;;10.05;2.35;;;;;;;;;;5038709;28;20045;-65
2022/05/14 13:08:08;;;;;;;12.30;3.08;;;;;;;;;;5053822;28;20092;-65
2022/05/14 13:10:49;;;;;;;8.18;3.38;;;;;;;;;;5054179;28;20078;-65
2022/05/14 13:13:42;;;;;;;6.38;2.88;;;;;;;;;;5031239;28;20059;-66
2022/05/14 13:16:37;;;;;;;8.68;4.05;;;;;;;;;;5030922;28;20653;-65
2022/05/14 13:19:59;;;;;;;8.38;2.40;;;;;;;;;;5042939;28;20037;-65
2022/05/14 13:22:43;;;;;;;6.22;3.10;;;;;;;;;;5053450;28;20040;-66
2022/05/14 13:25:38;;;;;;;10.73;2.97;;;;;;;;;;5049681;28;20076;-65
2022/05/14 13:28:54;;;;;;;6.45;2.53;;;;;;;;;;5052494;28;20045;-65
2022/05/14 13:31:28;;;;;;;8.63;2.58;;;;;;;;;;5051085;28;20045;-65
2022/05/14 13:37:30;;;;;;;8.60;2.80;;;;;;;;;;5053115;28;20049;-67
2022/05/14 13:40:31;;;;;;;8.90;3.30;;;;;;;;;;5047860;28;20069;-67
2022/05/14 13:43:12;;;;;;;8.98;3.10;;;;;;;;;;5055284;28;20052;-65
2022/05/14 13:46:07;;;;;;;5.78;3.38;;;;;;;;;;5055309;28;20033;-65
2022/05/14 13:48:50;;;;;;;12.20;2.80;;;;;;;;;;5055653;28;20079;-66
2022/05/14 13:51:33;;;;;;;7.60;3.17;;;;;;;;;;5034958;28;20071;-66
2022/05/14 13:54:32;;;;;;;5.88;3.25;;;;;;;;;;5035634;28;20422;-66
2022/05/14 13:57:25;;;;;;;9.45;3.60;;;;;;;;;;5053455;28;20049;-66
2022/05/14 14:00:10;;;;;;;8.15;3.00;;;;;;;;;;5050574;28;20041;-67
2022/05/14 14:03:06;;;;;;;17.90;3.80;;;;;;;;;;5051576;28;20052;-66
2022/05/14 14:05:56;;;;;;;10.05;3.70;;;;;;;;;;5048790;28;20049;-67
2022/05/14 14:09:11;;;;;;;7.82;3.22;;;;;;;;;;5041109;28;20268;-65
2022/05/14 14:11:47;;;;;;;9.00;3.13;;;;;;;;;;5032764;28;20045;-66
2022/05/14 14:14:23;;;;;;;15.15;3.35;;;;;;;;;;5019619;28;20068;-66
2022/05/14 14:16:53;;;;;;;10.38;4.15;;;;;;;;;;5036158;28;20069;-66
2022/05/14 14:19:23;;;;;;;7.82;2.58;;;;;;;;;;5035605;28;20042;-66
2022/05/14 14:21:52;;;;;;;7.38;2.30;;;;;;;;;;5035406;28;20057;-66
2022/05/14 14:24:21;;;;;;;3.97;2.40;;;;;;;;;;5032588;28;20049;-67
2022/05/14 14:26:51;;;;;;;4.00;2.83;;;;;;;;;;5032672;28;20061;-66
2022/05/14 14:29:20;;;;;;;8.65;2.58;;;;;;;;;;5032049;28;20416;-66
2022/05/14 14:31:49;;;;;;;7.78;2.92;;;;;;;;;;5032904;28;20061;-65
2022/05/14 14:34:18;;;;;;;5.18;2.40;;;;;;;;;;5036268;28;20054;-66
2022/05/14 14:36:46;;;;;;;8.55;3.30;;;;;;;;;;5036444;28;20053;-67
2022/05/14 14:39:14;;;;;;;7.72;2.75;;;;;;;;;;5036824;28;20397;-67
2022/05/14 14:41:42;;;;;;;4.53;2.95;;;;;;;;;;5036569;28;20045;-67
2022/05/14 14:44:12;;;;;;;7.68;2.70;;;;;;;;;;5036622;28;20053;-66
2022/05/14 14:46:43;;;;;;;8.73;2.90;;;;;;;;;;5036156;28;20057;-67
2022/05/14 14:49:13;;;;;;;9.10;3.00;;;;;;;;;;5036387;28;20232;-66
2022/05/14 14:51:42;;;;;;;10.32;3.60;;;;;;;;;;5036380;28;20526;-67
2022/05/14 14:54:11;;;;;;;8.82;2.63;;;;;;;;;;5036679;28;20088;-66
2022/05/14 14:56:41;;;;;;;6.43;3.03;;;;;;;;;;5036499;28;20052;-67
2022/05/14 14:59:09;;;;;;;7.28;2.60;;;;;;;;;;5036942;28;20111;-67
2022/05/14 15:01:49;;;;;;;6.47;2.58;;;;;;;;;;5035850;28;20049;-67
2022/05/14 15:04:33;;;;;;;5.30;2.40;;;;;;;;;;5026182;28;20041;-66
2022/05/14 15:07:03;;;;;;;11.73;3.40;;;;;;;;;;5038325;28;20059;-66
2022/05/14 15:09:33;;;;;;;13.25;3.92;;;;;;;;;;5038721;28;20104;-65
2022/05/14 15:12:03;;;;;;;7.03;2.67;;;;;;;;;;5056207;28;20025;-66
2022/05/14 15:14:31;;;;;;;5.63;2.38;;;;;;;;;;5055680;28;20446;-67
2022/05/14 15:16:59;;;;;;;8.40;2.80;;;;;;;;;;5056115;28;20403;-67
2022/05/14 15:19:28;;;;;;;11.15;4.35;;;;;;;;;;5055400;28;20111;-67
2022/05/14 15:21:57;;;;;;;6.32;2.90;;;;;;;;;;5055748;28;20087;-67
2022/05/14 15:24:27;;;;;;;4.70;2.10;;;;;;;;;;5055440;28;20045;-67
2022/05/14 15:26:55;;;;;;;10.68;3.95;;;;;;;;;;5051292;28;20056;-68
2022/05/14 15:29:24;;;;;;;7.93;2.88;;;;;;;;;;5055127;28;20124;-66
2022/05/14 15:32:04;;;;;;;7.88;2.72;;;;;;;;;;5055405;28;20534;-67
2022/05/14 15:34:33;;;;;;;8.48;2.75;;;;;;;;;;5054152;28;20380;-67
2022/05/14 15:37:03;;;;;;;7.82;3.40;;;;;;;;;;5054685;28;20409;-66
2022/05/14 15:39:31;;;;;;;9.82;2.90;;;;;;;;;;5055392;28;20049;-65
2022/05/14 15:42:04;;;;;;;7.63;3.05;;;;;;;;;;5055116;28;20045;-66
2022/05/14 15:44:35;;;;;;;7.10;2.72;;;;;;;;;;5036949;28;20087;-65
2022/05/14 15:47:04;;;;;;;11.02;2.55;;;;;;;;;;5054826;28;20056;-66
2022/05/14 15:49:37;;;;;;;5.43;2.67;;;;;;;;;;5046099;28;20500;-66